createdAt,value
2019-05-13T00:00:34.021Z,6.10
2019-05-13T00:03:03.372Z,3.53
2019-05-13T00:05:30.205Z,7.50
2019-05-13T00:07:57.406Z,5.07
2019-05-13T00:10:24.537Z,3.20
2019-05-13T00:12:53.953Z,4.70
2019-05-13T00:15:20.756Z,4.33
2019-05-13T00:17:47.840Z,5.57
2019-05-13T00:20:16.221Z,5.00
2019-05-13T00:22:44.686Z,5.20
2019-05-13T00:25:14.401Z,5.17
2019-05-13T00:27:41.221Z,4.53
2019-05-13T00:30:09.422Z,4.80
2019-05-13T00:32:36.570Z,3.20
2019-05-13T00:35:04.056Z,4.07
2019-05-13T00:37:33.328Z,5.53
2019-05-13T00:40:00.215Z,5.13
2019-05-13T00:42:27.303Z,3.47
2019-05-13T00:44:54.403Z,4.97
2019-05-13T00:47:23.552Z,5.00
2019-05-13T00:49:50.580Z,5.67
2019-05-13T00:52:17.708Z,5.23
2019-05-13T00:54:44.846Z,4.23
2019-05-13T00:57:13.364Z,6.03
2019-05-13T00:59:44.128Z,4.80
2019-05-13T01:02:10.551Z,4.70
2019-05-13T01:04:37.639Z,6.37
2019-05-13T01:07:04.808Z,2.33
2019-05-13T01:09:34.038Z,3.33
2019-05-13T01:12:00.955Z,3.60
2019-05-13T01:14:28.139Z,5.13
2019-05-13T01:16:55.234Z,6.30
2019-05-13T01:19:23.717Z,5.53
2019-05-13T01:21:53.845Z,3.47
2019-05-13T01:24:20.486Z,4.57
2019-05-13T01:26:47.654Z,7.27
2019-05-13T01:29:14.761Z,6.00
2019-05-13T01:31:43.481Z,4.77
2019-05-13T01:34:10.838Z,5.03
2019-05-13T01:36:38.349Z,3.73
2019-05-13T01:39:06.583Z,3.67
2019-05-13T01:41:33.704Z,4.83
2019-05-13T01:44:00.792Z,3.73
2019-05-13T01:46:27.865Z,3.43
2019-05-13T01:48:55.334Z,3.93
2019-05-13T01:51:23.948Z,6.73
2019-05-13T01:53:53.428Z,4.67
2019-05-13T01:56:20.294Z,4.30
2019-05-13T01:58:47.817Z,10.73
2019-05-13T02:01:15.064Z,5.93
2019-05-13T02:03:44.264Z,4.20
2019-05-13T02:06:11.199Z,2.33
2019-05-13T02:08:38.320Z,9.10
2019-05-13T02:11:05.421Z,4.47
2019-05-13T02:13:34.389Z,6.37
2019-05-13T02:16:03.917Z,4.03
2019-05-13T02:18:30.834Z,4.63
2019-05-13T02:20:57.950Z,4.13
2019-05-13T02:23:25.039Z,7.17
2019-05-13T02:25:54.337Z,3.93
2019-05-13T02:28:21.190Z,7.10
2019-05-13T02:30:48.370Z,4.90
2019-05-13T02:33:15.857Z,5.03
2019-05-13T02:35:43.558Z,5.43
2019-05-13T02:38:19.878Z,6.00
2019-05-13T02:40:43.179Z,5.67
2019-05-13T02:43:13.581Z,3.67
2019-05-13T02:45:42.781Z,6.37
2019-05-13T02:48:12.493Z,6.53
2019-05-13T02:50:38.077Z,4.27
2019-05-13T02:53:05.283Z,5.77
2019-05-13T02:55:33.073Z,6.33
2019-05-13T02:58:03.304Z,3.80
2019-05-13T03:00:32.647Z,6.00
2019-05-13T03:02:58.453Z,5.43
2019-05-13T03:05:25.528Z,4.63
2019-05-13T03:07:53.239Z,4.83
2019-05-13T03:10:22.403Z,4.87
2019-05-13T03:12:53.193Z,8.97
2019-05-13T03:15:18.639Z,12.37
2019-05-13T03:18:05.663Z,6.27
2019-05-13T03:20:34.552Z,7.13
2019-05-13T03:23:03.112Z,10.73
2019-05-13T03:25:38.837Z,4.40
2019-05-13T03:28:06.027Z,7.10
2019-05-13T03:30:35.468Z,3.93
2019-05-13T03:33:10.380Z,5.53
2019-05-13T03:35:36.682Z,6.70
2019-05-13T03:38:03.438Z,5.80
2019-05-13T03:40:33.010Z,5.60
2019-05-13T03:43:02.775Z,5.90
2019-05-13T03:45:32.709Z,5.87
2019-05-13T03:48:03.673Z,7.07
2019-05-13T03:50:33.405Z,7.47
2019-05-13T03:53:02.643Z,5.23
2019-05-13T03:55:27.997Z,6.20
2019-05-13T03:57:55.317Z,7.53
2019-05-13T04:00:23.542Z,7.60
2019-05-13T04:02:52.238Z,5.20
2019-05-13T04:05:22.843Z,5.53
2019-05-13T04:07:52.013Z,6.13
2019-05-13T04:10:18.785Z,4.67
2019-05-13T04:12:45.897Z,5.10
2019-05-13T04:15:13.093Z,6.50
2019-05-13T04:17:42.796Z,4.97
2019-05-13T04:20:12.340Z,8.30
2019-05-13T04:22:38.276Z,8.50
2019-05-13T04:25:05.664Z,9.93
2019-05-13T04:27:32.988Z,8.43
2019-05-13T04:30:03.475Z,11.17
2019-05-13T04:32:33.343Z,12.90
2019-05-13T04:34:58.908Z,13.27
2019-05-13T04:37:26.002Z,12.33
2019-05-13T04:39:56.306Z,10.77
2019-05-13T04:42:23.110Z,11.33
2019-05-13T04:44:53.235Z,8.07
2019-05-13T04:47:22.681Z,10.90
2019-05-13T04:49:48.841Z,12.07
2019-05-13T04:52:22.286Z,6.37
2019-05-13T04:54:48.670Z,6.37
2019-05-13T04:57:15.935Z,8.37
2019-05-13T04:59:44.507Z,5.70
2019-05-13T05:02:49.029Z,10.20
2019-05-13T05:05:36.856Z,7.03
2019-05-13T05:08:55.245Z,5.80
2019-05-13T05:12:09.350Z,7.50
2019-05-13T05:15:14.541Z,6.77
2019-05-13T05:18:12.870Z,6.37
2019-05-13T05:21:14.698Z,9.13
2019-05-13T05:24:32.431Z,5.60
2019-05-13T05:27:42.085Z,7.70
2019-05-13T05:30:41.728Z,5.53
2019-05-13T05:33:51.864Z,6.87
2019-05-13T05:36:52.048Z,6.63
2019-05-13T05:39:22.785Z,7.67
2019-05-13T05:41:53.061Z,6.40
2019-05-13T05:44:21.947Z,8.63
2019-05-13T05:46:51.427Z,7.10
2019-05-13T05:49:23.700Z,7.20
2019-05-13T05:51:51.585Z,6.07
2019-05-13T05:54:21.817Z,9.13
2019-05-13T05:56:51.938Z,6.63
2019-05-13T05:59:21.923Z,7.73
2019-05-13T06:01:52.623Z,5.73
2019-05-13T06:04:21.769Z,10.53
2019-05-13T06:06:52.074Z,7.47
2019-05-13T06:09:18.530Z,7.60
2019-05-13T06:11:45.599Z,5.97
2019-05-13T06:14:13.808Z,8.93
2019-05-13T06:16:42.549Z,6.07
2019-05-13T06:19:12.131Z,6.97
2019-05-13T06:21:39.061Z,8.43
2019-05-13T06:24:06.129Z,8.80
2019-05-13T06:26:33.352Z,6.23
2019-05-13T06:29:02.699Z,6.03
2019-05-13T06:31:32.079Z,8.17
2019-05-13T06:33:59.132Z,8.47
2019-05-13T06:36:26.227Z,8.77
2019-05-13T06:38:53.717Z,7.53
2019-05-13T06:41:22.002Z,8.97
2019-05-13T06:43:49.662Z,9.83
2019-05-13T06:46:17.080Z,8.87
2019-05-13T06:48:44.300Z,7.53
2019-05-13T06:51:11.674Z,9.47
2019-05-13T06:53:42.461Z,11.10
2019-05-13T06:56:12.116Z,8.03
2019-05-13T06:58:41.355Z,6.30
2019-05-13T07:01:14.526Z,6.80
2019-05-13T07:03:42.136Z,8.23
2019-05-13T07:06:12.168Z,6.37
2019-05-13T07:08:38.722Z,7.07
2019-05-13T07:11:17.775Z,7.10
2019-05-13T07:13:36.033Z,6.30
2019-05-13T07:16:03.527Z,9.03
2019-05-13T07:18:32.373Z,12.50
2019-05-13T07:21:02.250Z,7.10
2019-05-13T07:23:31.648Z,6.23
2019-05-13T07:25:58.033Z,5.23
2019-05-13T07:28:25.661Z,8.10
2019-05-13T07:30:52.935Z,10.33
2019-05-13T07:33:21.387Z,5.90
2019-05-13T07:35:49.099Z,9.20
2019-05-13T07:38:16.813Z,6.67
2019-05-13T07:40:43.988Z,7.27
2019-05-13T07:43:12.275Z,7.80
2019-05-13T07:45:42.080Z,7.30
2019-05-13T07:48:20.664Z,8.20
2019-05-13T07:50:51.519Z,6.23
2019-05-13T07:53:06.958Z,7.53
2019-05-13T07:55:34.105Z,4.70
2019-05-13T07:58:02.132Z,4.70
2019-05-13T08:00:29.384Z,4.00
2019-05-13T08:02:56.484Z,5.97
2019-05-13T08:05:23.562Z,5.60
2019-05-13T08:07:51.481Z,8.93
2019-05-13T08:10:21.763Z,5.33
2019-05-13T08:12:48.576Z,5.77
2019-05-13T08:15:15.839Z,4.27
2019-05-13T08:17:47.298Z,8.03
2019-05-13T08:20:13.251Z,5.67
2019-05-13T08:22:42.440Z,7.77
2019-05-13T08:25:09.474Z,8.20
2019-05-13T08:27:36.939Z,7.17
2019-05-13T08:30:04.639Z,5.97
2019-05-13T08:32:31.848Z,4.90
2019-05-13T08:35:06.976Z,9.33
2019-05-13T08:37:27.885Z,8.00
2019-05-13T08:39:55.011Z,3.33
2019-05-13T08:42:23.842Z,3.60
2019-05-13T08:44:52.341Z,6.60
2019-05-13T08:47:22.436Z,4.67
2019-05-13T08:49:49.176Z,5.63
2019-05-13T08:52:17.142Z,6.33
2019-05-13T08:54:44.260Z,4.03
2019-05-13T08:57:11.958Z,4.67
2019-05-13T08:59:41.548Z,6.10
2019-05-13T09:02:08.675Z,4.70
2019-05-13T09:04:35.785Z,3.57
2019-05-13T09:07:02.958Z,4.63
2019-05-13T09:09:31.379Z,4.23
2019-05-13T09:11:59.237Z,5.13
2019-05-13T09:14:26.322Z,6.10
2019-05-13T09:16:53.724Z,5.87
2019-05-13T09:19:21.577Z,4.83
2019-05-13T09:21:48.799Z,3.93
2019-05-13T09:24:25.475Z,4.93
2019-05-13T09:26:45.147Z,3.03
2019-05-13T09:29:12.276Z,4.63
2019-05-13T09:31:41.570Z,4.47
2019-05-13T09:34:08.356Z,6.30
2019-05-13T09:36:35.494Z,5.67
2019-05-13T09:39:05.189Z,4.40
2019-05-13T09:41:38.568Z,3.37
2019-05-13T09:44:02.195Z,3.80
2019-05-13T09:46:31.648Z,5.10
2019-05-13T09:49:11.743Z,4.23
2019-05-13T09:51:27.593Z,3.20
2019-05-13T09:53:54.695Z,4.43
2019-05-13T09:56:22.460Z,4.83
2019-05-13T09:58:51.344Z,3.83
2019-05-13T10:01:19.041Z,2.93
2019-05-13T10:03:54.735Z,2.43
2019-05-13T10:06:15.541Z,3.07
2019-05-13T10:08:42.577Z,1.87
2019-05-13T10:11:12.340Z,3.67
2019-05-13T10:13:39.179Z,3.50
2019-05-13T10:16:06.268Z,1.80
2019-05-13T10:18:33.425Z,3.03
2019-05-13T10:21:01.432Z,4.53
2019-05-13T10:23:29.105Z,3.17
2019-05-13T10:25:59.113Z,2.10
2019-05-13T10:28:26.705Z,2.87
2019-05-13T10:30:54.690Z,3.37
2019-05-13T10:33:22.329Z,4.63
2019-05-13T10:35:52.399Z,4.73
2019-05-13T10:38:22.731Z,4.90
2019-05-13T10:40:51.915Z,5.50
2019-05-13T10:43:31.132Z,10.17
2019-05-13T10:45:48.213Z,3.07
2019-05-13T10:48:15.353Z,2.60
2019-05-13T10:50:42.916Z,3.90
2019-05-13T10:53:12.218Z,6.13
2019-05-13T10:55:38.974Z,4.07
2019-05-13T10:58:06.091Z,4.37
2019-05-13T11:00:42.390Z,2.47
2019-05-13T11:03:11.769Z,4.33
2019-05-13T11:05:42.094Z,5.27
2019-05-13T11:08:08.246Z,4.10
2019-05-13T11:10:35.715Z,3.87
2019-05-13T11:13:06.179Z,3.87
2019-05-13T11:15:40.370Z,4.37
2019-05-13T11:18:03.090Z,3.33
2019-05-13T11:20:32.423Z,4.27
2019-05-13T11:22:59.390Z,5.47
2019-05-13T11:25:26.447Z,7.43
2019-05-13T11:27:58.362Z,6.20
2019-05-13T11:30:23.293Z,3.67
2019-05-13T11:32:51.604Z,3.63
2019-05-13T11:35:18.994Z,3.37
2019-05-13T11:37:46.103Z,5.03
2019-05-13T11:40:13.250Z,6.30
2019-05-13T11:42:42.230Z,2.63
2019-05-13T11:45:11.686Z,4.30
2019-05-13T11:47:40.922Z,2.13
2019-05-13T11:50:07.980Z,4.33
2019-05-13T11:52:35.352Z,2.63
2019-05-13T11:55:03.089Z,4.93
2019-05-13T11:57:33.867Z,2.80
2019-05-13T12:00:02.547Z,3.50
2019-05-13T12:02:32.719Z,3.80
2019-05-13T12:05:03.149Z,3.20
2019-05-13T12:07:28.418Z,5.63
2019-05-13T12:09:55.729Z,5.80
2019-05-13T12:12:30.157Z,2.93
2019-05-13T12:15:20.266Z,4.33
2019-05-13T12:17:22.503Z,3.10
2019-05-13T12:19:49.895Z,2.80
2019-05-13T12:22:16.959Z,3.53
2019-05-13T12:24:45.263Z,4.03
2019-05-13T12:27:15.411Z,4.77
2019-05-13T12:29:43.299Z,3.43
2019-05-13T12:32:13.541Z,4.17
2019-05-13T12:34:45.001Z,6.13
2019-05-13T12:37:12.030Z,3.57
2019-05-13T12:39:39.022Z,4.63
2019-05-13T12:42:06.128Z,6.20
2019-05-13T12:44:33.922Z,2.33
2019-05-13T12:47:03.348Z,1.83
2019-05-13T12:49:33.535Z,3.27
2019-05-13T12:52:03.551Z,3.83
2019-05-13T12:54:28.358Z,5.60
2019-05-13T12:56:55.508Z,3.37
2019-05-13T12:59:22.568Z,10.97
2019-05-13T13:01:51.898Z,2.23
2019-05-13T13:04:19.003Z,3.93
2019-05-13T13:06:46.048Z,4.23
2019-05-13T13:09:13.307Z,3.23
2019-05-13T13:11:43.771Z,4.57
2019-05-13T13:14:14.092Z,4.30
2019-05-13T13:16:38.294Z,2.30
2019-05-13T13:19:06.220Z,5.90
2019-05-13T13:21:37.498Z,2.50
2019-05-13T13:24:04.542Z,2.93
2019-05-13T13:26:33.514Z,3.77
2019-05-13T13:29:00.976Z,3.13
2019-05-13T13:31:28.518Z,2.40
2019-05-13T13:33:56.015Z,3.20
2019-05-13T13:36:24.137Z,3.27
2019-05-13T13:38:56.106Z,3.13
2019-05-13T13:41:22.914Z,3.10
2019-05-13T13:43:53.828Z,3.70
2019-05-13T13:46:33.828Z,3.50
2019-05-13T13:48:48.560Z,2.30
2019-05-13T13:51:15.727Z,4.50
2019-05-13T13:53:44.581Z,3.57
2019-05-13T13:56:14.508Z,2.87
2019-05-13T13:58:43.873Z,3.20
2019-05-13T14:01:17.613Z,4.33
2019-05-13T14:03:45.631Z,4.57
2019-05-13T14:06:08.322Z,6.70
2019-05-13T14:08:35.491Z,3.00
2019-05-13T14:11:05.304Z,4.95
2019-05-13T14:13:33.496Z,5.13
2019-05-13T14:16:01.841Z,3.83
2019-05-13T14:18:31.727Z,3.20
2019-05-13T14:20:59.953Z,4.20
2019-05-13T14:23:27.061Z,4.03
2019-05-13T14:25:55.597Z,3.03
2019-05-13T14:28:26.205Z,3.13
2019-05-13T14:30:53.282Z,3.90
2019-05-13T14:36:48.944Z,4.37
2019-05-13T14:39:16.455Z,3.50
2019-05-13T14:41:45.575Z,3.67
2019-05-13T14:44:14.623Z,3.10
2019-05-13T14:46:47.710Z,4.87
2019-05-13T14:49:12.391Z,2.00
2019-05-13T14:51:41.487Z,4.30
2019-05-13T14:54:08.687Z,2.63
2019-05-13T14:56:35.789Z,2.83
2019-05-13T14:59:03.571Z,2.83
2019-05-13T15:01:31.903Z,3.17
2019-05-13T15:03:59.270Z,2.40
2019-05-13T15:06:26.389Z,2.30
2019-05-13T15:08:53.849Z,2.53
2019-05-13T15:11:21.939Z,4.00
2019-05-13T15:13:51.205Z,3.03
2019-05-13T15:16:18.844Z,3.47
2019-05-13T15:18:46.259Z,2.27
2019-05-13T15:21:13.341Z,4.23
2019-05-13T15:23:42.323Z,2.87
2019-05-13T15:26:11.689Z,2.57
2019-05-13T15:28:39.065Z,3.73
2019-05-13T15:31:07.005Z,3.13
2019-05-13T15:33:34.464Z,5.63
2019-05-13T15:36:02.409Z,6.50
2019-05-13T15:38:32.086Z,4.60
2019-05-13T15:41:01.196Z,3.83
2019-05-13T15:43:28.382Z,5.10
2019-05-13T15:45:56.123Z,2.80
2019-05-13T15:48:23.274Z,2.63
2019-05-13T15:50:56.513Z,2.33
2019-05-13T15:53:27.958Z,3.60
2019-05-13T15:55:55.097Z,2.90
2019-05-13T15:58:38.049Z,1.47
2019-05-13T16:01:03.114Z,4.37
2019-05-13T16:03:36.997Z,2.10
2019-05-13T16:06:07.614Z,2.13
2019-05-13T16:08:37.777Z,2.33
2019-05-13T16:11:05.262Z,4.40
2019-05-13T16:13:35.669Z,2.43
2019-05-13T16:16:12.417Z,3.73
2019-05-13T16:46:37.916Z,2.17
2019-05-13T16:49:04.692Z,1.63
2019-05-13T16:51:31.797Z,2.47
2019-05-13T16:53:59.006Z,2.20
2019-05-13T16:56:30.214Z,3.77
2019-05-13T16:58:54.767Z,2.93
2019-05-13T17:01:22.116Z,3.40
2019-05-13T17:03:51.177Z,3.27
2019-05-13T17:06:17.898Z,3.97
2019-05-13T17:08:44.651Z,4.70
2019-05-13T17:11:11.946Z,3.10
2019-05-13T17:13:39.375Z,2.20
2019-05-13T17:16:06.189Z,4.00
2019-05-13T17:18:33.085Z,2.83
2019-05-13T17:21:01.429Z,3.93
2019-05-13T17:23:28.409Z,3.60
2019-05-13T17:25:55.266Z,3.87
2019-05-13T17:28:22.080Z,3.17
2019-05-13T17:30:48.807Z,2.50
2019-05-13T17:33:15.655Z,3.57
2019-05-13T17:35:42.806Z,1.70
2019-05-13T17:38:11.369Z,2.17
2019-05-13T17:40:38.361Z,6.27
2019-05-13T17:43:05.579Z,2.53
2019-05-13T17:45:32.345Z,2.37
2019-05-13T17:48:01.087Z,2.37
2019-05-13T17:50:28.024Z,3.43
2019-05-13T17:52:54.996Z,2.40
2019-05-13T17:55:22.407Z,2.93
2019-05-13T17:57:49.308Z,1.57
2019-05-13T18:00:16.982Z,3.70
2019-05-13T18:02:43.715Z,2.10
2019-05-13T18:05:12.105Z,1.63
2019-05-13T18:07:39.257Z,1.57
2019-05-13T18:10:06.317Z,2.60
2019-05-13T18:12:33.262Z,1.63
2019-05-13T18:15:02.281Z,1.57
2019-05-13T18:17:31.063Z,1.80
2019-05-13T18:19:57.989Z,1.50
2019-05-13T18:22:24.739Z,2.83
2019-05-13T18:24:52.003Z,3.13
2019-05-13T18:27:18.869Z,3.43
2019-05-13T18:29:45.659Z,4.13
2019-05-13T18:32:12.610Z,3.17
2019-05-13T18:34:45.309Z,2.53
2019-05-13T18:37:12.106Z,2.57
2019-05-13T18:39:41.657Z,1.83
2019-05-13T18:42:08.259Z,4.87
2019-05-13T18:44:35.791Z,1.43
2019-05-13T18:47:03.064Z,2.00
2019-05-13T18:49:31.895Z,2.50
2019-05-13T18:51:59.011Z,1.83
2019-05-13T18:54:25.767Z,2.00
2019-05-13T18:56:52.673Z,2.23
2019-05-13T18:59:21.464Z,2.03
2019-05-13T19:01:48.322Z,3.30
2019-05-13T19:04:15.776Z,1.90
2019-05-13T19:06:43.922Z,2.77
2019-05-13T19:09:12.506Z,2.93
2019-05-13T19:11:39.581Z,2.47
2019-05-13T19:14:08.486Z,2.30
2019-05-13T19:16:36.012Z,3.00
2019-05-13T19:19:12.306Z,4.20
2019-05-13T19:21:31.977Z,2.90
2019-05-13T19:23:58.995Z,3.33
2019-05-13T19:26:25.786Z,3.17
2019-05-13T19:28:52.526Z,2.13
2019-05-13T19:31:22.050Z,2.87
2019-05-13T19:33:49.006Z,2.03
2019-05-13T19:36:15.767Z,3.07
2019-05-13T19:38:42.694Z,2.23
2019-05-13T19:41:11.625Z,4.57
2019-05-13T19:43:38.403Z,2.40
2019-05-13T19:46:05.281Z,2.93
2019-05-13T19:48:32.933Z,2.70
2019-05-13T19:51:01.555Z,2.23
2019-05-13T19:53:29.035Z,3.07
2019-05-13T19:55:56.241Z,2.77
2019-05-13T19:58:25.229Z,3.13
2019-05-13T20:00:52.595Z,2.57
2019-05-13T20:03:19.379Z,3.13
2019-05-13T20:05:46.327Z,2.53
2019-05-13T20:08:14.656Z,4.07
2019-05-13T20:10:42.277Z,5.30
2019-05-13T20:13:11.109Z,3.90
2019-05-13T20:15:37.935Z,3.27
2019-05-13T20:18:04.580Z,3.10
2019-05-13T20:20:31.763Z,3.97
2019-05-13T20:23:01.247Z,2.50
2019-05-13T20:25:27.629Z,2.07
2019-05-13T20:27:54.430Z,3.03
2019-05-13T20:30:21.951Z,4.07
2019-05-13T20:32:51.340Z,2.33
2019-05-13T20:35:18.044Z,3.23
2019-05-13T20:37:44.802Z,2.87
2019-05-13T20:40:11.731Z,3.00
2019-05-13T20:42:38.454Z,2.97
2019-05-13T20:45:05.215Z,2.63
2019-05-13T20:47:33.429Z,2.67
2019-05-13T20:50:02.378Z,4.30
2019-05-13T20:52:31.429Z,2.50
2019-05-13T20:54:58.230Z,3.50
2019-05-13T20:57:26.091Z,3.67
2019-05-13T20:59:53.177Z,2.40
2019-05-13T21:02:22.141Z,2.00
2019-05-13T21:04:48.766Z,4.03
2019-05-13T21:07:15.790Z,2.63
2019-05-13T21:09:42.576Z,3.37
2019-05-13T21:12:11.873Z,3.10
2019-05-13T21:14:38.653Z,2.37
2019-05-13T21:17:06.526Z,6.33
2019-05-13T21:19:39.191Z,3.23
2019-05-13T21:22:02.447Z,3.13
2019-05-13T21:24:29.196Z,4.33
2019-05-13T21:26:55.987Z,2.20
2019-05-13T21:29:22.955Z,2.93
2019-05-13T21:31:49.733Z,2.93
2019-05-13T21:34:16.496Z,2.80
2019-05-13T21:36:43.273Z,2.47
2019-05-13T21:39:12.212Z,4.67
2019-05-13T21:41:41.147Z,2.90
2019-05-13T21:44:07.735Z,2.47
2019-05-13T21:46:34.534Z,3.63
2019-05-13T21:49:01.319Z,4.33
2019-05-13T21:51:28.118Z,3.03
2019-05-13T21:53:56.006Z,2.20
2019-05-13T21:56:23.377Z,2.33
2019-05-13T21:58:52.009Z,2.37
2019-05-13T22:01:23.056Z,4.13
2019-05-13T22:03:47.862Z,4.50
2019-05-13T22:06:15.159Z,5.70
2019-05-13T22:08:42.012Z,2.83
2019-05-13T22:11:09.158Z,3.27
2019-05-13T22:13:36.150Z,2.93
2019-05-13T22:16:03.009Z,3.87
2019-05-13T22:18:31.423Z,3.03
2019-05-13T22:20:58.576Z,3.83
2019-05-13T22:23:25.332Z,4.97
2019-05-13T22:25:52.120Z,3.53
2019-05-13T22:28:19.011Z,5.43
2019-05-13T22:30:45.810Z,5.57
2019-05-13T22:33:12.695Z,6.83
2019-05-13T22:35:41.629Z,6.30
2019-05-13T22:38:08.931Z,5.33
2019-05-13T22:40:35.785Z,4.90
2019-05-13T22:43:02.677Z,4.50
2019-05-13T22:45:31.260Z,3.83
2019-05-13T22:47:58.124Z,4.30
2019-05-13T22:50:25.185Z,2.93
2019-05-13T22:52:52.357Z,2.50
2019-05-13T22:55:19.176Z,3.00
2019-05-13T22:57:46.336Z,2.60
2019-05-13T23:00:13.182Z,3.00
2019-05-13T23:02:42.181Z,3.53
2019-05-13T23:05:11.154Z,2.80
2019-05-13T23:07:38.003Z,3.70
2019-05-13T23:10:05.392Z,2.50
2019-05-13T23:12:32.605Z,4.27
2019-05-13T23:15:01.303Z,2.70
2019-05-13T23:17:28.432Z,2.83
2019-05-13T23:19:55.688Z,3.60
2019-05-13T23:22:22.592Z,4.70
2019-05-13T23:24:49.364Z,3.83
2019-05-13T23:27:16.271Z,4.67
2019-05-13T23:29:43.033Z,4.13
2019-05-13T23:32:12.033Z,3.33
2019-05-13T23:34:38.929Z,3.10
2019-05-13T23:37:05.790Z,3.33
2019-05-13T23:39:32.593Z,3.50
2019-05-13T23:42:01.432Z,3.03
2019-05-13T23:44:28.501Z,3.13
2019-05-13T23:46:55.400Z,2.83
2019-05-13T23:49:22.295Z,4.20
2019-05-13T23:51:49.273Z,3.60
2019-05-13T23:54:16.158Z,2.90
2019-05-13T23:56:43.073Z,3.17
2019-05-13T23:59:11.343Z,6.23
